sensor_id;sensor_type;location;lat;lon;timestamp;P1;durP1;ratioP1;P2;durP2;ratioP2
27889;SDS011;15238;49.082;9.102;2023-03-31T00:01:41;3.92;;;1.15;;
27889;SDS011;15238;49.082;9.102;2023-03-31T00:03:41;4.30;;;1.40;;
27889;SDS011;15238;49.082;9.102;2023-03-31T00:05:42;9.10;;;1.95;;
27889;SDS011;15238;49.082;9.102;2023-03-31T00:07:47;5.30;;;1.50;;
27889;SDS011;15238;49.082;9.102;2023-03-31T00:09:47;9.07;;;1.80;;
27889;SDS011;15238;49.082;9.102;2023-03-31T00:11:48;3.20;;;1.60;;
27889;SDS011;15238;49.082;9.102;2023-03-31T00:13:49;4.78;;;1.67;;
27889;SDS011;15238;49.082;9.102;2023-03-31T00:15:55;6.22;;;1.30;;
27889;SDS011;15238;49.082;9.102;2023-03-31T00:18:06;7.47;;;1.40;;
27889;SDS011;15238;49.082;9.102;2023-03-31T00:20:07;5.93;;;1.52;;
27889;SDS011;15238;49.082;9.102;2023-03-31T00:22:11;4.70;;;1.20;;
27889;SDS011;15238;49.082;9.102;2023-03-31T00:24:11;3.22;;;1.05;;
27889;SDS011;15238;49.082;9.102;2023-03-31T00:26:12;4.82;;;1.20;;
27889;SDS011;15238;49.082;9.102;2023-03-31T00:28:13;8.60;;;1.38;;
27889;SDS011;15238;49.082;9.102;2023-03-31T00:30:14;4.65;;;1.23;;
27889;SDS011;15238;49.082;9.102;2023-03-31T00:32:15;4.05;;;1.20;;
27889;SDS011;15238;49.082;9.102;2023-03-31T00:34:15;9.25;;;1.50;;
27889;SDS011;15238;49.082;9.102;2023-03-31T00:36:16;5.70;;;1.15;;
27889;SDS011;15238;49.082;9.102;2023-03-31T00:38:20;3.55;;;1.40;;
27889;SDS011;15238;49.082;9.102;2023-03-31T00:40:20;5.00;;;1.10;;
27889;SDS011;15238;49.082;9.102;2023-03-31T00:42:21;6.85;;;1.20;;
27889;SDS011;15238;49.082;9.102;2023-03-31T00:44:22;6.38;;;1.35;;
27889;SDS011;15238;49.082;9.102;2023-03-31T00:46:29;3.42;;;1.02;;
27889;SDS011;15238;49.082;9.102;2023-03-31T00:48:33;4.32;;;1.25;;
27889;SDS011;15238;49.082;9.102;2023-03-31T00:50:40;5.22;;;1.15;;
27889;SDS011;15238;49.082;9.102;2023-03-31T00:52:48;8.35;;;1.27;;
27889;SDS011;15238;49.082;9.102;2023-03-31T00:54:55;6.53;;;1.33;;
27889;SDS011;15238;49.082;9.102;2023-03-31T00:56:58;6.57;;;1.13;;
27889;SDS011;15238;49.082;9.102;2023-03-31T00:59:02;6.07;;;1.30;;
27889;SDS011;15238;49.082;9.102;2023-03-31T01:01:08;10.10;;;1.38;;
27889;SDS011;15238;49.082;9.102;2023-03-31T01:03:13;7.13;;;1.63;;
27889;SDS011;15238;49.082;9.102;2023-03-31T01:05:14;4.38;;;1.60;;
27889;SDS011;15238;49.082;9.102;2023-03-31T01:07:20;3.70;;;1.00;;
27889;SDS011;15238;49.082;9.102;2023-03-31T01:09:30;6.35;;;1.35;;
27889;SDS011;15238;49.082;9.102;2023-03-31T01:11:33;4.35;;;1.80;;
27889;SDS011;15238;49.082;9.102;2023-03-31T01:13:35;6.53;;;1.50;;
27889;SDS011;15238;49.082;9.102;2023-03-31T01:15:37;5.82;;;1.40;;
27889;SDS011;15238;49.082;9.102;2023-03-31T01:17:38;5.68;;;1.05;;
27889;SDS011;15238;49.082;9.102;2023-03-31T01:19:48;6.40;;;1.33;;
27889;SDS011;15238;49.082;9.102;2023-03-31T01:22:20;3.88;;;1.42;;
27889;SDS011;15238;49.082;9.102;2023-03-31T01:24:55;7.72;;;1.30;;
27889;SDS011;15238;49.082;9.102;2023-03-31T01:27:26;5.20;;;0.93;;
27889;SDS011;15238;49.082;9.102;2023-03-31T01:39:49;4.93;;;0.90;;
27889;SDS011;15238;49.082;9.102;2023-03-31T01:44:57;4.50;;;1.10;;
27889;SDS011;15238;49.082;9.102;2023-03-31T01:47:18;7.70;;;1.38;;
27889;SDS011;15238;49.082;9.102;2023-03-31T01:55:59;5.45;;;1.20;;
27889;SDS011;15238;49.082;9.102;2023-03-31T01:58:22;5.70;;;1.20;;
27889;SDS011;15238;49.082;9.102;2023-03-31T02:00:27;7.18;;;1.50;;
27889;SDS011;15238;49.082;9.102;2023-03-31T02:02:36;10.90;;;1.80;;
27889;SDS011;15238;49.082;9.102;2023-03-31T02:04:53;6.57;;;1.60;;
27889;SDS011;15238;49.082;9.102;2023-03-31T02:06:59;5.72;;;1.30;;
27889;SDS011;15238;49.082;9.102;2023-03-31T02:09:03;5.72;;;1.15;;
27889;SDS011;15238;49.082;9.102;2023-03-31T02:11:09;7.25;;;1.63;;
27889;SDS011;15238;49.082;9.102;2023-03-31T02:13:11;8.43;;;1.30;;
27889;SDS011;15238;49.082;9.102;2023-03-31T02:15:15;7.78;;;1.85;;
27889;SDS011;15238;49.082;9.102;2023-03-31T02:17:22;6.05;;;1.33;;
27889;SDS011;15238;49.082;9.102;2023-03-31T02:19:32;7.53;;;1.55;;
27889;SDS011;15238;49.082;9.102;2023-03-31T02:21:38;6.47;;;1.33;;
27889;SDS011;15238;49.082;9.102;2023-03-31T02:23:40;6.78;;;1.42;;
27889;SDS011;15238;49.082;9.102;2023-03-31T02:25:52;5.32;;;1.40;;
27889;SDS011;15238;49.082;9.102;2023-03-31T02:28:22;6.35;;;1.38;;
27889;SDS011;15238;49.082;9.102;2023-03-31T02:32:30;3.17;;;1.00;;
27889;SDS011;15238;49.082;9.102;2023-03-31T02:34:38;4.07;;;1.20;;
27889;SDS011;15238;49.082;9.102;2023-03-31T02:36:40;6.93;;;1.42;;
27889;SDS011;15238;49.082;9.102;2023-03-31T02:38:53;7.22;;;1.60;;
27889;SDS011;15238;49.082;9.102;2023-03-31T02:41:02;6.18;;;1.30;;
27889;SDS011;15238;49.082;9.102;2023-03-31T02:43:02;7.20;;;1.38;;
27889;SDS011;15238;49.082;9.102;2023-03-31T02:45:03;4.53;;;1.35;;
27889;SDS011;15238;49.082;9.102;2023-03-31T02:47:07;5.63;;;1.30;;
27889;SDS011;15238;49.082;9.102;2023-03-31T02:49:10;6.32;;;2.03;;
27889;SDS011;15238;49.082;9.102;2023-03-31T02:53:48;10.18;;;1.80;;
27889;SDS011;15238;49.082;9.102;2023-03-31T02:56:10;9.63;;;1.35;;
27889;SDS011;15238;49.082;9.102;2023-03-31T02:58:31;7.20;;;1.75;;
27889;SDS011;15238;49.082;9.102;2023-03-31T03:00:46;7.82;;;1.40;;
27889;SDS011;15238;49.082;9.102;2023-03-31T03:03:15;4.93;;;1.08;;
27889;SDS011;15238;49.082;9.102;2023-03-31T03:05:40;7.43;;;1.27;;
27889;SDS011;15238;49.082;9.102;2023-03-31T03:08:08;2.28;;;0.80;;
27889;SDS011;15238;49.082;9.102;2023-03-31T03:12:42;5.53;;;1.65;;
27889;SDS011;15238;49.082;9.102;2023-03-31T03:15:16;5.82;;;1.45;;
27889;SDS011;15238;49.082;9.102;2023-03-31T03:17:25;6.03;;;1.20;;
27889;SDS011;15238;49.082;9.102;2023-03-31T03:19:31;5.10;;;1.13;;
27889;SDS011;15238;49.082;9.102;2023-03-31T03:21:31;5.25;;;1.33;;
27889;SDS011;15238;49.082;9.102;2023-03-31T03:23:32;3.92;;;1.40;;
27889;SDS011;15238;49.082;9.102;2023-03-31T03:25:33;10.32;;;1.75;;
27889;SDS011;15238;49.082;9.102;2023-03-31T03:27:34;5.47;;;0.98;;
27889;SDS011;15238;49.082;9.102;2023-03-31T03:29:35;5.25;;;0.90;;
27889;SDS011;15238;49.082;9.102;2023-03-31T03:31:35;9.40;;;1.95;;
27889;SDS011;15238;49.082;9.102;2023-03-31T03:33:36;7.78;;;1.73;;
27889;SDS011;15238;49.082;9.102;2023-03-31T03:35:36;6.00;;;1.40;;
27889;SDS011;15238;49.082;9.102;2023-03-31T03:37:37;6.35;;;1.20;;
27889;SDS011;15238;49.082;9.102;2023-03-31T03:39:38;5.80;;;1.30;;
27889;SDS011;15238;49.082;9.102;2023-03-31T03:41:38;4.38;;;1.27;;
27889;SDS011;15238;49.082;9.102;2023-03-31T03:43:39;4.75;;;1.65;;
27889;SDS011;15238;49.082;9.102;2023-03-31T03:45:39;6.10;;;1.05;;
27889;SDS011;15238;49.082;9.102;2023-03-31T03:47:40;3.92;;;1.25;;
27889;SDS011;15238;49.082;9.102;2023-03-31T03:49:40;5.97;;;0.93;;
27889;SDS011;15238;49.082;9.102;2023-03-31T03:51:41;3.75;;;1.42;;
27889;SDS011;15238;49.082;9.102;2023-03-31T03:53:41;6.20;;;1.40;;
27889;SDS011;15238;49.082;9.102;2023-03-31T03:55:42;7.88;;;1.95;;
27889;SDS011;15238;49.082;9.102;2023-03-31T03:57:43;4.78;;;1.25;;
27889;SDS011;15238;49.082;9.102;2023-03-31T03:59:44;4.50;;;1.20;;
27889;SDS011;15238;49.082;9.102;2023-03-31T04:01:45;7.47;;;1.40;;
27889;SDS011;15238;49.082;9.102;2023-03-31T04:03:45;5.53;;;1.13;;
27889;SDS011;15238;49.082;9.102;2023-03-31T04:05:46;4.32;;;1.13;;
27889;SDS011;15238;49.082;9.102;2023-03-31T04:07:48;5.70;;;1.38;;
27889;SDS011;15238;49.082;9.102;2023-03-31T04:09:49;5.32;;;1.10;;
27889;SDS011;15238;49.082;9.102;2023-03-31T04:11:49;5.18;;;1.40;;
27889;SDS011;15238;49.082;9.102;2023-03-31T04:13:50;3.05;;;1.15;;
27889;SDS011;15238;49.082;9.102;2023-03-31T04:15:51;4.65;;;1.50;;
27889;SDS011;15238;49.082;9.102;2023-03-31T04:17:51;3.42;;;1.95;;
27889;SDS011;15238;49.082;9.102;2023-03-31T04:19:53;7.10;;;2.40;;
27889;SDS011;15238;49.082;9.102;2023-03-31T04:21:54;6.55;;;1.83;;
27889;SDS011;15238;49.082;9.102;2023-03-31T04:24:01;8.75;;;1.52;;
27889;SDS011;15238;49.082;9.102;2023-03-31T04:26:03;8.73;;;1.48;;
27889;SDS011;15238;49.082;9.102;2023-03-31T04:28:07;5.13;;;1.30;;
27889;SDS011;15238;49.082;9.102;2023-03-31T04:30:09;13.10;;;2.20;;
27889;SDS011;15238;49.082;9.102;2023-03-31T04:32:10;3.85;;;1.30;;
27889;SDS011;15238;49.082;9.102;2023-03-31T04:34:14;4.47;;;1.40;;
27889;SDS011;15238;49.082;9.102;2023-03-31T04:36:14;6.30;;;1.60;;
27889;SDS011;15238;49.082;9.102;2023-03-31T04:38:25;6.85;;;1.67;;
27889;SDS011;15238;49.082;9.102;2023-03-31T04:40:32;6.75;;;1.88;;
27889;SDS011;15238;49.082;9.102;2023-03-31T04:42:34;6.40;;;1.75;;
27889;SDS011;15238;49.082;9.102;2023-03-31T04:44:35;4.78;;;1.45;;
27889;SDS011;15238;49.082;9.102;2023-03-31T04:46:35;4.45;;;1.50;;
27889;SDS011;15238;49.082;9.102;2023-03-31T04:48:36;3.47;;;1.42;;
27889;SDS011;15238;49.082;9.102;2023-03-31T04:50:37;5.55;;;1.50;;
27889;SDS011;15238;49.082;9.102;2023-03-31T04:52:38;5.53;;;1.77;;
27889;SDS011;15238;49.082;9.102;2023-03-31T04:54:38;5.45;;;1.75;;
27889;SDS011;15238;49.082;9.102;2023-03-31T04:56:39;4.82;;;1.95;;
27889;SDS011;15238;49.082;9.102;2023-03-31T04:58:39;4.53;;;1.70;;
27889;SDS011;15238;49.082;9.102;2023-03-31T05:00:40;6.13;;;1.65;;
27889;SDS011;15238;49.082;9.102;2023-03-31T05:02:41;8.35;;;2.15;;
27889;SDS011;15238;49.082;9.102;2023-03-31T05:04:41;3.58;;;1.70;;
27889;SDS011;15238;49.082;9.102;2023-03-31T05:06:42;9.23;;;1.92;;
27889;SDS011;15238;49.082;9.102;2023-03-31T05:08:43;7.70;;;2.25;;
27889;SDS011;15238;49.082;9.102;2023-03-31T05:10:43;9.13;;;2.45;;
27889;SDS011;15238;49.082;9.102;2023-03-31T05:12:44;6.45;;;2.50;;
27889;SDS011;15238;49.082;9.102;2023-03-31T05:14:45;6.72;;;1.67;;
27889;SDS011;15238;49.082;9.102;2023-03-31T05:16:45;6.78;;;1.90;;
27889;SDS011;15238;49.082;9.102;2023-03-31T05:18:46;7.65;;;2.13;;
27889;SDS011;15238;49.082;9.102;2023-03-31T05:20:46;6.47;;;1.92;;
27889;SDS011;15238;49.082;9.102;2023-03-31T05:22:47;6.10;;;2.00;;
27889;SDS011;15238;49.082;9.102;2023-03-31T05:24:47;6.45;;;1.90;;
27889;SDS011;15238;49.082;9.102;2023-03-31T05:26:48;5.82;;;1.67;;
27889;SDS011;15238;49.082;9.102;2023-03-31T05:28:51;6.78;;;1.95;;
27889;SDS011;15238;49.082;9.102;2023-03-31T05:30:52;6.50;;;1.95;;
27889;SDS011;15238;49.082;9.102;2023-03-31T05:32:53;6.35;;;2.03;;
27889;SDS011;15238;49.082;9.102;2023-03-31T05:34:53;6.07;;;2.03;;
27889;SDS011;15238;49.082;9.102;2023-03-31T05:36:56;8.27;;;2.60;;
27889;SDS011;15238;49.082;9.102;2023-03-31T05:38:56;4.97;;;2.00;;
27889;SDS011;15238;49.082;9.102;2023-03-31T05:40:57;6.15;;;2.13;;
27889;SDS011;15238;49.082;9.102;2023-03-31T05:42:57;6.55;;;2.00;;
27889;SDS011;15238;49.082;9.102;2023-03-31T05:44:58;11.75;;;2.50;;
27889;SDS011;15238;49.082;9.102;2023-03-31T05:46:58;6.82;;;2.15;;
27889;SDS011;15238;49.082;9.102;2023-03-31T05:48:59;6.68;;;2.00;;
27889;SDS011;15238;49.082;9.102;2023-03-31T05:51:00;9.18;;;2.17;;
27889;SDS011;15238;49.082;9.102;2023-03-31T05:53:01;5.45;;;2.40;;
27889;SDS011;15238;49.082;9.102;2023-03-31T05:55:02;8.57;;;2.88;;
27889;SDS011;15238;49.082;9.102;2023-03-31T05:57:03;5.97;;;2.45;;
27889;SDS011;15238;49.082;9.102;2023-03-31T05:59:03;9.73;;;2.88;;
27889;SDS011;15238;49.082;9.102;2023-03-31T06:01:05;10.88;;;3.65;;
27889;SDS011;15238;49.082;9.102;2023-03-31T06:03:08;10.15;;;2.72;;
27889;SDS011;15238;49.082;9.102;2023-03-31T06:05:09;8.93;;;2.95;;
27889;SDS011;15238;49.082;9.102;2023-03-31T06:07:09;8.68;;;2.75;;
27889;SDS011;15238;49.082;9.102;2023-03-31T06:09:10;10.60;;;2.70;;
27889;SDS011;15238;49.082;9.102;2023-03-31T06:11:12;7.60;;;2.80;;
27889;SDS011;15238;49.082;9.102;2023-03-31T06:15:21;10.13;;;3.20;;
27889;SDS011;15238;49.082;9.102;2023-03-31T06:17:22;10.20;;;3.08;;
27889;SDS011;15238;49.082;9.102;2023-03-31T06:19:22;11.85;;;4.05;;
27889;SDS011;15238;49.082;9.102;2023-03-31T06:21:23;7.22;;;2.88;;
27889;SDS011;15238;49.082;9.102;2023-03-31T06:23:24;12.00;;;3.80;;
27889;SDS011;15238;49.082;9.102;2023-03-31T06:25:25;10.77;;;3.65;;
27889;SDS011;15238;49.082;9.102;2023-03-31T06:27:26;10.27;;;3.47;;
27889;SDS011;15238;49.082;9.102;2023-03-31T06:29:26;8.13;;;3.70;;
27889;SDS011;15238;49.082;9.102;2023-03-31T06:31:27;15.18;;;3.30;;
27889;SDS011;15238;49.082;9.102;2023-03-31T06:33:27;10.93;;;3.63;;
27889;SDS011;15238;49.082;9.102;2023-03-31T06:35:28;9.63;;;3.40;;
27889;SDS011;15238;49.082;9.102;2023-03-31T06:37:28;8.38;;;3.63;;
27889;SDS011;15238;49.082;9.102;2023-03-31T06:39:29;11.57;;;3.53;;
27889;SDS011;15238;49.082;9.102;2023-03-31T06:41:30;9.45;;;3.65;;
27889;SDS011;15238;49.082;9.102;2023-03-31T06:43:30;11.25;;;3.83;;
27889;SDS011;15238;49.082;9.102;2023-03-31T06:45:31;10.73;;;3.55;;
27889;SDS011;15238;49.082;9.102;2023-03-31T06:47:32;9.15;;;3.50;;
27889;SDS011;15238;49.082;9.102;2023-03-31T06:49:32;17.50;;;4.20;;
27889;SDS011;15238;49.082;9.102;2023-03-31T06:51:33;11.68;;;4.43;;
27889;SDS011;15238;49.082;9.102;2023-03-31T06:53:34;11.57;;;4.88;;
27889;SDS011;15238;49.082;9.102;2023-03-31T06:55:35;13.65;;;4.05;;
27889;SDS011;15238;49.082;9.102;2023-03-31T06:57:36;6.53;;;3.22;;
27889;SDS011;15238;49.082;9.102;2023-03-31T06:59:37;9.13;;;3.38;;
27889;SDS011;15238;49.082;9.102;2023-03-31T07:01:37;5.03;;;3.05;;
27889;SDS011;15238;49.082;9.102;2023-03-31T07:03:41;11.93;;;3.55;;
27889;SDS011;15238;49.082;9.102;2023-03-31T07:05:41;12.48;;;4.13;;
27889;SDS011;15238;49.082;9.102;2023-03-31T07:07:46;14.05;;;3.88;;
27889;SDS011;15238;49.082;9.102;2023-03-31T07:09:47;14.02;;;4.78;;
27889;SDS011;15238;49.082;9.102;2023-03-31T07:11:47;10.68;;;4.25;;
27889;SDS011;15238;49.082;9.102;2023-03-31T07:13:48;15.48;;;5.40;;
27889;SDS011;15238;49.082;9.102;2023-03-31T07:15:49;11.48;;;4.72;;
27889;SDS011;15238;49.082;9.102;2023-03-31T07:17:49;11.10;;;4.40;;
27889;SDS011;15238;49.082;9.102;2023-03-31T07:19:52;9.93;;;4.43;;
27889;SDS011;15238;49.082;9.102;2023-03-31T07:21:53;12.35;;;4.75;;
27889;SDS011;15238;49.082;9.102;2023-03-31T07:23:55;9.63;;;4.72;;
27889;SDS011;15238;49.082;9.102;2023-03-31T07:25:56;11.93;;;4.43;;
27889;SDS011;15238;49.082;9.102;2023-03-31T07:28:01;11.10;;;6.20;;
27889;SDS011;15238;49.082;9.102;2023-03-31T07:30:04;10.52;;;4.60;;
27889;SDS011;15238;49.082;9.102;2023-03-31T07:32:10;12.13;;;4.20;;
27889;SDS011;15238;49.082;9.102;2023-03-31T07:34:10;12.05;;;4.75;;
27889;SDS011;15238;49.082;9.102;2023-03-31T07:36:11;11.43;;;4.28;;
27889;SDS011;15238;49.082;9.102;2023-03-31T07:38:11;7.72;;;3.83;;
27889;SDS011;15238;49.082;9.102;2023-03-31T07:40:20;10.80;;;4.32;;
27889;SDS011;15238;49.082;9.102;2023-03-31T07:42:28;11.88;;;4.07;;
27889;SDS011;15238;49.082;9.102;2023-03-31T07:44:31;13.88;;;4.50;;
27889;SDS011;15238;49.082;9.102;2023-03-31T07:46:35;10.55;;;5.03;;
27889;SDS011;15238;49.082;9.102;2023-03-31T07:48:36;8.88;;;4.10;;
27889;SDS011;15238;49.082;9.102;2023-03-31T07:50:36;10.93;;;4.25;;
27889;SDS011;15238;49.082;9.102;2023-03-31T07:52:39;7.05;;;3.42;;
27889;SDS011;15238;49.082;9.102;2023-03-31T07:54:40;10.10;;;3.92;;
27889;SDS011;15238;49.082;9.102;2023-03-31T07:56:40;10.38;;;4.00;;
27889;SDS011;15238;49.082;9.102;2023-03-31T07:58:41;12.05;;;3.88;;
27889;SDS011;15238;49.082;9.102;2023-03-31T08:00:43;11.43;;;3.45;;
27889;SDS011;15238;49.082;9.102;2023-03-31T08:02:43;6.38;;;3.08;;
27889;SDS011;15238;49.082;9.102;2023-03-31T08:04:44;6.15;;;2.95;;
27889;SDS011;15238;49.082;9.102;2023-03-31T08:06:45;6.55;;;2.85;;
27889;SDS011;15238;49.082;9.102;2023-03-31T08:08:46;8.68;;;3.13;;
27889;SDS011;15238;49.082;9.102;2023-03-31T08:10:48;7.78;;;2.92;;
27889;SDS011;15238;49.082;9.102;2023-03-31T08:12:49;5.43;;;2.65;;
27889;SDS011;15238;49.082;9.102;2023-03-31T08:14:51;6.13;;;2.22;;
27889;SDS011;15238;49.082;9.102;2023-03-31T08:16:51;4.57;;;1.77;;
27889;SDS011;15238;49.082;9.102;2023-03-31T08:18:54;8.73;;;1.95;;
27889;SDS011;15238;49.082;9.102;2023-03-31T08:20:54;4.18;;;2.08;;
27889;SDS011;15238;49.082;9.102;2023-03-31T08:22:55;8.10;;;1.80;;
27889;SDS011;15238;49.082;9.102;2023-03-31T08:24:55;4.47;;;1.38;;
27889;SDS011;15238;49.082;9.102;2023-03-31T08:26:56;5.18;;;1.85;;
27889;SDS011;15238;49.082;9.102;2023-03-31T08:28:57;4.70;;;1.25;;
27889;SDS011;15238;49.082;9.102;2023-03-31T08:31:01;4.55;;;1.77;;
27889;SDS011;15238;49.082;9.102;2023-03-31T08:33:05;6.45;;;1.50;;
27889;SDS011;15238;49.082;9.102;2023-03-31T08:35:06;4.15;;;1.38;;
27889;SDS011;15238;49.082;9.102;2023-03-31T08:37:08;4.93;;;1.55;;
27889;SDS011;15238;49.082;9.102;2023-03-31T08:39:09;3.95;;;1.50;;
27889;SDS011;15238;49.082;9.102;2023-03-31T08:41:52;3.90;;;1.23;;
27889;SDS011;15238;49.082;9.102;2023-03-31T08:43:52;3.28;;;1.50;;
27889;SDS011;15238;49.082;9.102;2023-03-31T08:45:55;4.97;;;1.40;;
27889;SDS011;15238;49.082;9.102;2023-03-31T08:48:01;3.95;;;1.25;;
27889;SDS011;15238;49.082;9.102;2023-03-31T08:50:14;5.47;;;1.27;;
27889;SDS011;15238;49.082;9.102;2023-03-31T08:52:26;4.97;;;1.17;;
27889;SDS011;15238;49.082;9.102;2023-03-31T08:54:40;8.68;;;1.25;;
27889;SDS011;15238;49.082;9.102;2023-03-31T08:56:46;7.15;;;1.35;;
27889;SDS011;15238;49.082;9.102;2023-03-31T08:58:49;5.10;;;1.35;;
27889;SDS011;15238;49.082;9.102;2023-03-31T09:00:53;4.95;;;1.30;;
27889;SDS011;15238;49.082;9.102;2023-03-31T09:03:17;8.23;;;1.30;;
27889;SDS011;15238;49.082;9.102;2023-03-31T09:05:35;7.20;;;1.52;;
27889;SDS011;15238;49.082;9.102;2023-03-31T09:07:55;6.43;;;1.05;;
27889;SDS011;15238;49.082;9.102;2023-03-31T09:12:22;4.80;;;1.48;;
27889;SDS011;15238;49.082;9.102;2023-03-31T09:14:36;7.55;;;1.40;;
27889;SDS011;15238;49.082;9.102;2023-03-31T09:18:57;5.32;;;0.90;;
27889;SDS011;15238;49.082;9.102;2023-03-31T09:25:33;6.40;;;1.10;;
27889;SDS011;15238;49.082;9.102;2023-03-31T09:27:38;6.72;;;1.13;;
27889;SDS011;15238;49.082;9.102;2023-03-31T09:29:42;5.22;;;0.90;;
27889;SDS011;15238;49.082;9.102;2023-03-31T09:31:48;5.65;;;1.13;;
27889;SDS011;15238;49.082;9.102;2023-03-31T09:33:49;4.88;;;1.42;;
27889;SDS011;15238;49.082;9.102;2023-03-31T09:35:53;5.97;;;1.30;;
27889;SDS011;15238;49.082;9.102;2023-03-31T09:37:53;9.00;;;1.30;;
27889;SDS011;15238;49.082;9.102;2023-03-31T09:39:54;4.13;;;0.98;;
27889;SDS011;15238;49.082;9.102;2023-03-31T09:41:58;3.78;;;0.88;;
27889;SDS011;15238;49.082;9.102;2023-03-31T09:43:59;5.40;;;1.20;;
27889;SDS011;15238;49.082;9.102;2023-03-31T09:46:00;5.43;;;1.15;;
27889;SDS011;15238;49.082;9.102;2023-03-31T09:48:03;7.18;;;1.55;;
27889;SDS011;15238;49.082;9.102;2023-03-31T09:50:10;7.10;;;1.67;;
27889;SDS011;15238;49.082;9.102;2023-03-31T09:52:30;6.47;;;1.30;;
27889;SDS011;15238;49.082;9.102;2023-03-31T09:54:35;7.45;;;1.13;;
27889;SDS011;15238;49.082;9.102;2023-03-31T09:58:41;6.80;;;1.20;;
27889;SDS011;15238;49.082;9.102;2023-03-31T10:01:04;6.68;;;1.50;;
27889;SDS011;15238;49.082;9.102;2023-03-31T10:03:05;5.80;;;1.30;;
27889;SDS011;15238;49.082;9.102;2023-03-31T10:05:06;7.05;;;1.27;;
27889;SDS011;15238;49.082;9.102;2023-03-31T10:07:36;6.63;;;1.35;;
27889;SDS011;15238;49.082;9.102;2023-03-31T10:09:36;5.75;;;1.23;;
27889;SDS011;15238;49.082;9.102;2023-03-31T10:11:38;7.15;;;1.05;;
27889;SDS011;15238;49.082;9.102;2023-03-31T10:18:34;3.17;;;1.10;;
27889;SDS011;15238;49.082;9.102;2023-03-31T10:20:42;4.85;;;1.00;;
27889;SDS011;15238;49.082;9.102;2023-03-31T10:22:47;6.57;;;1.02;;
27889;SDS011;15238;49.082;9.102;2023-03-31T10:24:50;4.70;;;0.93;;
27889;SDS011;15238;49.082;9.102;2023-03-31T10:26:52;5.32;;;1.25;;
27889;SDS011;15238;49.082;9.102;2023-03-31T10:28:54;6.03;;;1.10;;
27889;SDS011;15238;49.082;9.102;2023-03-31T10:30:56;5.80;;;1.27;;
27889;SDS011;15238;49.082;9.102;2023-03-31T10:33:12;6.47;;;1.33;;
27889;SDS011;15238;49.082;9.102;2023-03-31T10:37:50;5.38;;;1.02;;
27889;SDS011;15238;49.082;9.102;2023-03-31T10:39:59;5.38;;;1.23;;
27889;SDS011;15238;49.082;9.102;2023-03-31T10:42:20;6.13;;;1.02;;
27889;SDS011;15238;49.082;9.102;2023-03-31T10:44:31;5.90;;;1.00;;
27889;SDS011;15238;49.082;9.102;2023-03-31T10:46:40;4.32;;;0.85;;
27889;SDS011;15238;49.082;9.102;2023-03-31T10:48:51;5.40;;;1.20;;
27889;SDS011;15238;49.082;9.102;2023-03-31T10:50:53;3.72;;;1.23;;
27889;SDS011;15238;49.082;9.102;2023-03-31T10:53:10;8.82;;;1.55;;
27889;SDS011;15238;49.082;9.102;2023-03-31T10:55:13;6.00;;;0.82;;
27889;SDS011;15238;49.082;9.102;2023-03-31T10:57:31;4.38;;;1.33;;
27889;SDS011;15238;49.082;9.102;2023-03-31T11:20:35;7.15;;;0.70;;
27889;SDS011;15238;49.082;9.102;2023-03-31T11:22:59;0.75;;;0.30;;
27889;SDS011;15238;49.082;9.102;2023-03-31T11:25:15;9.18;;;0.60;;
27889;SDS011;15238;49.082;9.102;2023-03-31T11:29:57;2.10;;;0.30;;
27889;SDS011;15238;49.082;9.102;2023-03-31T11:42:33;1.60;;;0.30;;
27889;SDS011;15238;49.082;9.102;2023-03-31T11:44:52;2.20;;;0.57;;
27889;SDS011;15238;49.082;9.102;2023-03-31T11:47:00;0.88;;;0.40;;
27889;SDS011;15238;49.082;9.102;2023-03-31T11:49:17;1.60;;;0.28;;
27889;SDS011;15238;49.082;9.102;2023-03-31T11:51:25;1.63;;;0.32;;
27889;SDS011;15238;49.082;9.102;2023-03-31T11:53:46;2.83;;;0.45;;
27889;SDS011;15238;49.082;9.102;2023-03-31T11:55:49;3.40;;;0.60;;
27889;SDS011;15238;49.082;9.102;2023-03-31T11:59:59;3.47;;;0.40;;
27889;SDS011;15238;49.082;9.102;2023-03-31T12:06:38;1.00;;;0.38;;
27889;SDS011;15238;49.082;9.102;2023-03-31T12:08:45;1.83;;;0.25;;
27889;SDS011;15238;49.082;9.102;2023-03-31T12:11:10;4.82;;;0.43;;
27889;SDS011;15238;49.082;9.102;2023-03-31T12:15:21;1.17;;;0.20;;
27889;SDS011;15238;49.082;9.102;2023-03-31T12:17:31;3.20;;;0.40;;
27889;SDS011;15238;49.082;9.102;2023-03-31T12:19:34;4.07;;;0.60;;
27889;SDS011;15238;49.082;9.102;2023-03-31T12:21:49;5.10;;;0.93;;
27889;SDS011;15238;49.082;9.102;2023-03-31T12:23:54;3.97;;;0.60;;
27889;SDS011;15238;49.082;9.102;2023-03-31T12:25:58;3.45;;;0.60;;
27889;SDS011;15238;49.082;9.102;2023-03-31T12:28:17;3.95;;;0.50;;
27889;SDS011;15238;49.082;9.102;2023-03-31T12:30:35;6.18;;;0.73;;
27889;SDS011;15238;49.082;9.102;2023-03-31T12:40:01;5.45;;;0.50;;
27889;SDS011;15238;49.082;9.102;2023-03-31T12:42:41;4.13;;;0.82;;
27889;SDS011;15238;49.082;9.102;2023-03-31T12:54:56;4.72;;;0.88;;
27889;SDS011;15238;49.082;9.102;2023-03-31T12:57:12;4.07;;;0.35;;
27889;SDS011;15238;49.082;9.102;2023-03-31T12:59:21;4.72;;;1.30;;
27889;SDS011;15238;49.082;9.102;2023-03-31T13:01:31;4.55;;;0.77;;
27889;SDS011;15238;49.082;9.102;2023-03-31T13:05:51;6.35;;;1.02;;
27889;SDS011;15238;49.082;9.102;2023-03-31T13:07:51;3.88;;;1.05;;
27889;SDS011;15238;49.082;9.102;2023-03-31T13:09:56;3.45;;;0.80;;
27889;SDS011;15238;49.082;9.102;2023-03-31T13:11:57;4.05;;;0.75;;
27889;SDS011;15238;49.082;9.102;2023-03-31T13:18:18;2.65;;;0.70;;
27889;SDS011;15238;49.082;9.102;2023-03-31T13:22:32;2.72;;;0.20;;
27889;SDS011;15238;49.082;9.102;2023-03-31T13:24:35;5.60;;;1.52;;
27889;SDS011;15238;49.082;9.102;2023-03-31T13:26:36;2.00;;;0.35;;
27889;SDS011;15238;49.082;9.102;2023-03-31T13:28:39;2.67;;;0.60;;
27889;SDS011;15238;49.082;9.102;2023-03-31T13:32:41;3.22;;;0.52;;
27889;SDS011;15238;49.082;9.102;2023-03-31T13:35:15;2.58;;;0.50;;
27889;SDS011;15238;49.082;9.102;2023-03-31T13:44:59;1.98;;;0.35;;
27889;SDS011;15238;49.082;9.102;2023-03-31T13:47:30;1.83;;;0.40;;
27889;SDS011;15238;49.082;9.102;2023-03-31T13:51:58;2.28;;;0.60;;
27889;SDS011;15238;49.082;9.102;2023-03-31T14:04:24;5.28;;;0.73;;
27889;SDS011;15238;49.082;9.102;2023-03-31T14:10:52;4.05;;;0.60;;
27889;SDS011;15238;49.082;9.102;2023-03-31T14:13:06;4.10;;;0.77;;
27889;SDS011;15238;49.082;9.102;2023-03-31T14:15:19;4.03;;;0.73;;
27889;SDS011;15238;49.082;9.102;2023-03-31T14:17:39;4.63;;;0.90;;
27889;SDS011;15238;49.082;9.102;2023-03-31T14:19:47;4.18;;;0.70;;
27889;SDS011;15238;49.082;9.102;2023-03-31T14:24:35;5.38;;;1.08;;
27889;SDS011;15238;49.082;9.102;2023-03-31T14:31:34;5.68;;;1.30;;
27889;SDS011;15238;49.082;9.102;2023-03-31T14:33:50;7.60;;;1.05;;
27889;SDS011;15238;49.082;9.102;2023-03-31T14:36:18;5.65;;;0.75;;
27889;SDS011;15238;49.082;9.102;2023-03-31T14:38:28;2.90;;;0.73;;
27889;SDS011;15238;49.082;9.102;2023-03-31T14:40:29;4.10;;;0.98;;
27889;SDS011;15238;49.082;9.102;2023-03-31T14:44:37;4.90;;;0.90;;
27889;SDS011;15238;49.082;9.102;2023-03-31T14:46:37;5.68;;;0.98;;
27889;SDS011;15238;49.082;9.102;2023-03-31T14:48:45;4.82;;;0.82;;
27889;SDS011;15238;49.082;9.102;2023-03-31T14:50:46;6.53;;;1.00;;
27889;SDS011;15238;49.082;9.102;2023-03-31T14:52:51;9.30;;;0.85;;
27889;SDS011;15238;49.082;9.102;2023-03-31T14:54:51;7.22;;;0.77;;
27889;SDS011;15238;49.082;9.102;2023-03-31T14:56:53;4.00;;;0.82;;
27889;SDS011;15238;49.082;9.102;2023-03-31T14:58:55;2.42;;;0.60;;
27889;SDS011;15238;49.082;9.102;2023-03-31T15:00:56;2.95;;;0.68;;
27889;SDS011;15238;49.082;9.102;2023-03-31T15:02:58;3.70;;;0.60;;
27889;SDS011;15238;49.082;9.102;2023-03-31T15:05:03;5.03;;;1.15;;
27889;SDS011;15238;49.082;9.102;2023-03-31T15:07:06;5.63;;;1.15;;